Time;durP1;ratioP1;P1;durP2;ratioP2;P2;SDS_P1;SDS_P2;PMS_P1;PMS_P2;Temp;Humidity;BMP_temperature;BMP_pressure;BME280_temperature;BME280_humidity;BME280_pressure;Samples;Min_cycle;Max_cycle;Signal;HPM_P1;HPM_P2
2022/06/09 00:01:30;;;;;;;6.97;1.70;;;;;;;19.50;60.26;100464.73;1948535;73;21003;-60
2022/06/09 00:04:16;;;;;;;5.80;1.40;;;;;;;19.46;60.31;100464.63;1948701;73;21007;-59
2022/06/09 00:06:53;;;;;;;5.60;1.55;;;;;;;19.44;60.32;100470.55;1948564;73;21497;-62
2022/06/09 00:09:25;;;;;;;4.60;1.70;;;;;;;19.43;60.29;100476.88;1948658;74;21490;-62
2022/06/09 00:11:55;;;;;;;5.55;1.42;;;;;;;19.42;60.28;100476.04;1948431;73;21007;-62
2022/06/09 00:14:24;;;;;;;6.30;2.17;;;;;;;19.42;60.33;100485.39;1948634;74;21615;-62
2022/06/09 00:16:52;;;;;;;4.45;1.90;;;;;;;19.41;60.37;100482.83;1948708;74;21017;-62
2022/06/09 00:19:21;;;;;;;9.25;1.82;;;;;;;19.41;60.43;100478.83;1948586;74;21000;-62
2022/06/09 00:21:50;;;;;;;2.40;1.60;;;;;;;19.39;60.42;100476.27;1948581;74;21109;-65
2022/06/09 00:24:19;;;;;;;2.37;1.55;;;;;;;19.39;60.37;100481.62;1948490;74;21042;-64
2022/06/09 00:26:48;;;;;;;2.37;1.50;;;;;;;19.40;60.30;100477.98;1948592;74;21498;-68
2022/06/09 00:29:17;;;;;;;2.70;1.50;;;;;;;19.38;60.33;100475.90;1948656;74;21056;-60
2022/06/09 00:31:46;;;;;;;2.17;1.25;;;;;;;19.36;60.47;100479.67;1948569;74;21445;-60
2022/06/09 00:34:15;;;;;;;5.08;1.55;;;;;;;19.35;60.56;100487.30;1948698;74;21459;-62
2022/06/09 00:36:44;;;;;;;8.35;2.30;;;;;;;19.34;60.52;100485.13;1948571;74;21027;-68
2022/06/09 00:39:12;;;;;;;8.48;1.98;;;;;;;19.33;60.53;100474.57;1948513;74;21086;-68
2022/06/09 00:41:43;;;;;;;5.97;2.72;;;;;;;19.31;60.61;100473.39;1948686;74;21097;-67
2022/06/09 00:44:23;;;;;;;7.35;2.10;;;;;;;19.25;60.87;100469.36;1948637;73;21031;-67
2022/06/09 00:47:04;;;;;;;13.60;2.70;;;;;;;19.17;61.04;100466.95;1948608;74;21023;-67
2022/06/09 00:49:47;;;;;;;6.30;2.60;;;;;;;19.08;61.25;100474.70;1948581;74;21470;-67
2022/06/09 00:52:19;;;;;;;7.33;2.77;;;;;;;19.02;61.63;100478.36;1948783;73;21031;-67
2022/06/09 00:54:51;;;;;;;7.37;3.08;;;;;;;19.01;63.18;100486.83;1939725;74;21125;-60
2022/06/09 00:57:25;;;;;;;9.13;2.65;;;;;;;18.98;63.88;100486.22;1939071;74;21502;-60
2022/06/09 00:59:56;;;;;;;9.70;2.72;;;;;;;18.88;64.28;100488.27;1939180;74;21543;-68
2022/06/09 01:02:26;;;;;;;7.75;3.02;;;;;;;18.83;63.83;100482.47;1939120;74;21525;-67
2022/06/09 01:04:55;;;;;;;6.95;4.42;;;;;;;18.80;63.63;100476.49;1939079;74;21153;-65
2022/06/09 01:07:30;;;;;;;7.95;3.08;;;;;;;18.77;63.92;100478.05;1939170;74;21116;-65
2022/06/09 01:09:59;;;;;;;10.70;3.17;;;;;;;18.71;64.11;100480.22;1939127;74;21016;-65
2022/06/09 01:12:31;;;;;;;6.37;2.45;;;;;;;18.66;63.88;100476.22;1938937;74;21031;-66
2022/06/09 01:15:12;;;;;;;3.22;2.30;;;;;;;18.60;63.85;100475.36;1939081;74;21035;-65
2022/06/09 01:17:49;;;;;;;8.40;2.77;;;;;;;18.52;64.06;100480.80;1939109;74;21105;-64
2022/06/09 01:20:33;;;;;;;8.33;2.60;;;;;;;18.40;64.64;100473.73;1939296;74;21494;-67
2022/06/09 01:23:02;;;;;;;;;;;;;;;18.32;65.30;100486.80;1942038;74;21771;-67
2022/06/09 01:25:36;;;;;;;8.50;2.90;;;;;;;18.26;65.88;100478.78;1937689;74;20109;-68
2022/06/09 01:28:41;;;;;;;7.35;2.72;;;;;;;18.20;66.14;100478.39;1939048;74;21498;-60
2022/06/09 01:31:31;;;;;;;10.72;3.30;;;;;;;18.13;66.14;100484.19;1939026;74;21125;-66
2022/06/09 01:34:18;;;;;;;7.62;3.33;;;;;;;18.09;66.21;100486.72;1939054;74;21036;-64
2022/06/09 01:36:58;;;;;;;7.47;2.75;;;;;;;18.07;66.52;100492.62;1939191;74;21121;-64
2022/06/09 01:39:30;;;;;;;10.35;3.80;;;;;;;18.03;67.13;100492.48;1939006;74;21047;-65
2022/06/09 01:41:58;;;;;;;8.38;3.02;;;;;;;18.03;67.45;100492.48;1937142;74;21027;-64
2022/06/09 01:44:27;;;;;;;6.80;2.58;;;;;;;18.00;67.81;100494.52;1939038;74;21031;-64
2022/06/09 01:46:57;;;;;;;10.50;2.80;;;;;;;17.94;67.97;100494.04;1939093;74;21152;-64
2022/06/09 01:49:29;;;;;;;10.95;3.47;;;;;;;17.93;68.00;100502.14;1939160;74;21075;-62
2022/06/09 01:51:58;;;;;;;20.15;4.12;;;;;;;17.92;68.56;100503.09;1938952;74;21082;-63
2022/06/09 01:54:30;;;;;;;8.50;2.72;;;;;;;17.91;68.92;100512.06;1938898;73;21067;-62
2022/06/09 01:57:04;;;;;;;10.05;4.15;;;;;;;17.94;68.89;100515.81;1937959;74;21478;-60
2022/06/09 01:59:41;;;;;;;12.53;5.05;;;;;;;18.00;68.83;100515.84;1939203;74;21494;-61
2022/06/09 02:02:29;;;;;;;10.95;5.80;;;;;;;18.02;68.82;100517.45;1938771;74;21035;-58
2022/06/09 02:05:01;;;;;;;13.65;7.72;;;;;;;18.01;69.15;100515.73;1938402;74;21023;-64
2022/06/09 02:07:32;;;;;;;10.95;6.50;;;;;;;18.02;68.92;100512.11;1938349;74;21482;-65
2022/06/09 02:10:06;;;;;;;8.50;3.22;;;;;;;18.09;68.71;100517.82;1939218;74;21536;-61
2022/06/09 02:12:35;;;;;;;5.40;2.75;;;;;;;18.13;68.65;100517.49;1935691;74;21040;-60
2022/06/09 02:15:05;;;;;;;8.03;3.00;;;;;;;18.20;68.42;100515.20;1939069;74;21043;-60
2022/06/09 02:17:42;;;;;;;8.50;3.75;;;;;;;18.28;68.17;100518.66;1939261;74;21035;-60
2022/06/09 02:20:13;;;;;;;10.15;6.53;;;;;;;18.37;67.97;100512.63;1938624;74;21083;-60
2022/06/09 02:22:42;;;;;;;11.48;4.80;;;;;;;18.39;67.99;100510.70;1939248;74;21106;-60
2022/06/09 02:25:11;;;;;;;15.72;6.08;;;;;;;18.34;68.19;100504.86;1939144;74;21027;-60
2022/06/09 02:27:40;;;;;;;6.03;4.37;;;;;;;18.28;68.31;100500.00;1939083;74;21462;-60
2022/06/09 02:30:10;;;;;;;7.72;2.77;;;;;;;18.27;68.19;100498.28;1939149;74;21509;-60
2022/06/09 02:32:38;;;;;;;11.50;3.02;;;;;;;18.23;68.47;100492.83;1939258;74;21024;-60
2022/06/09 02:35:08;;;;;;;7.62;4.25;;;;;;;18.23;68.60;100494.16;1939181;74;21032;-60
2022/06/09 02:37:37;;;;;;;10.35;3.77;;;;;;;18.24;68.43;100487.84;1939277;74;21031;-60
2022/06/09 02:40:07;;;;;;;5.30;3.42;;;;;;;18.26;68.17;100484.58;1939052;74;21051;-60
2022/06/09 02:42:35;;;;;;;3.95;2.40;;;;;;;18.28;67.93;100489.34;1939182;74;21089;-60
2022/06/09 02:45:04;;;;;;;15.20;6.47;;;;;;;18.29;67.95;100491.02;1939169;74;21035;-60
2022/06/09 02:47:33;;;;;;;8.25;4.30;;;;;;;18.35;67.91;100489.21;1939219;74;21023;-60
2022/06/09 02:50:03;;;;;;;7.10;3.30;;;;;;;18.50;67.92;100487.23;1939157;74;21023;-61
2022/06/09 02:52:32;;;;;;;11.08;4.83;;;;;;;18.73;67.93;100490.77;1939221;74;21443;-61
2022/06/09 02:55:02;;;;;;;20.97;9.93;;;;;;;18.98;67.95;100487.55;1943746;74;21027;-60
2022/06/09 02:57:30;;;;;;;11.70;4.80;;;;;;;19.18;67.79;100483.31;1948640;74;21485;-65
2022/06/09 02:59:59;;;;;;;12.33;4.97;;;;;;;19.39;67.68;100482.95;1948628;74;21399;-71
2022/06/09 03:02:27;;;;;;;13.55;6.53;;;;;;;19.58;67.47;100475.62;1948891;74;21027;-71
2022/06/09 03:04:58;;;;;;;29.72;16.23;;;;;;;19.78;67.21;100479.38;1948585;74;21100;-66
2022/06/09 03:07:26;;;;;;;25.70;11.97;;;;;;;20.00;67.02;100470.45;1948666;73;21078;-66
2022/06/09 03:09:55;;;;;;;30.52;14.45;;;;;;;20.22;66.92;100476.19;1948661;74;21104;-66
2022/06/09 03:12:24;;;;;;;22.98;11.48;;;;;;;20.38;66.51;100477.55;1948620;74;21031;-66
2022/06/09 03:14:53;;;;;;;23.75;10.10;;;;;;;20.50;66.36;100482.38;1948661;74;21007;-66
2022/06/09 03:17:23;;;;;;;22.05;10.43;;;;;;;20.70;66.34;100483.38;1948562;74;21459;-69
2022/06/09 03:19:52;;;;;;;23.55;9.88;;;;;;;20.90;66.17;100483.00;1948684;74;21094;-60
2022/06/09 03:22:22;;;;;;;17.23;8.10;;;;;;;21.03;65.76;100480.95;1948524;74;21027;-62
2022/06/09 03:24:50;;;;;;;21.52;7.87;;;;;;;21.18;65.38;100480.09;1948631;74;21479;-63
2022/06/09 03:27:19;;;;;;;18.07;7.45;;;;;;;21.33;65.28;100489.94;1948683;74;21047;-63
2022/06/09 03:29:47;;;;;;;16.12;7.37;;;;;;;21.48;65.13;100491.28;1948588;74;21074;-69
2022/06/09 03:32:16;;;;;;;18.00;7.20;;;;;;;21.60;64.69;100493.38;1948517;74;21086;-69
2022/06/09 03:34:45;;;;;;;15.70;7.75;;;;;;;21.62;64.39;100491.91;1948677;74;21105;-70
2022/06/09 03:37:13;;;;;;;17.98;6.33;;;;;;;21.67;64.08;100501.69;1948745;74;21024;-65
2022/06/09 03:39:43;;;;;;;14.63;6.17;;;;;;;21.78;63.78;100498.42;1948723;74;21426;-62
2022/06/09 03:42:12;;;;;;;9.85;4.62;;;;;;;21.95;63.43;100511.63;1948598;74;21023;-66
2022/06/09 03:44:40;;;;;;;10.30;4.35;;;;;;;22.14;63.06;100511.29;1948512;73;20999;-65
2022/06/09 03:47:14;;;;;;;13.00;4.00;;;;;;;22.28;62.22;100504.67;1948597;74;21116;-64
2022/06/09 03:49:42;;;;;;;10.53;5.75;;;;;;;22.41;61.69;100506.59;1948724;74;21034;-63
2022/06/09 03:52:11;;;;;;;15.75;8.15;;;;;;;22.59;61.00;100508.04;1948514;74;21027;-64
2022/06/09 03:54:40;;;;;;;14.83;7.25;;;;;;;22.80;60.53;100501.67;1948371;72;21102;-66
2022/06/09 03:57:08;;;;;;;9.38;3.55;;;;;;;23.02;60.24;100499.97;1948388;73;21493;-61
2022/06/09 03:59:37;;;;;;;8.00;3.30;;;;;;;23.26;59.29;100494.62;1948568;73;21531;-61
2022/06/09 04:02:05;;;;;;;6.67;2.95;;;;;;;23.39;58.40;100491.59;1948516;74;21100;-62
2022/06/09 04:04:34;;;;;;;9.78;3.80;;;;;;;23.59;57.96;100501.70;1948570;74;21031;-62
2022/06/09 04:07:03;;;;;;;6.97;2.87;;;;;;;23.66;56.75;100505.48;1948599;74;21071;-62
2022/06/09 04:09:32;;;;;;;9.43;3.17;;;;;;;23.51;55.66;100517.24;1948424;73;21108;-63
2022/06/09 04:12:01;;;;;;;6.00;2.92;;;;;;;23.07;55.63;100504.45;1948595;74;21113;-62
2022/06/09 04:14:29;;;;;;;8.38;3.37;;;;;;;22.85;55.67;100508.30;1948612;74;21118;-63
2022/06/09 04:16:58;;;;;;;10.90;6.37;;;;;;;22.70;55.72;100514.61;1948584;74;21047;-62
2022/06/09 04:19:29;;;;;;;13.50;7.22;;;;;;;22.65;55.86;100515.53;1948114;73;21145;-62
2022/06/09 04:21:57;;;;;;;6.62;4.00;;;;;;;22.66;55.86;100518.55;1948548;74;21031;-62
2022/06/09 04:24:26;;;;;;;6.75;4.10;;;;;;;22.70;55.79;100524.48;1948517;74;21007;-61
2022/06/09 04:26:54;;;;;;;7.50;2.72;;;;;;;22.79;55.88;100521.44;1948676;74;21043;-60
2022/06/09 04:29:23;;;;;;;7.33;3.45;;;;;;;22.83;55.65;100522.83;1948592;74;21007;-61
2022/06/09 04:31:52;;;;;;;5.55;2.67;;;;;;;22.73;55.61;100519.67;1948602;74;21039;-58
2022/06/09 04:34:21;;;;;;;10.53;2.75;;;;;;;22.72;55.54;100515.31;1948697;74;21043;-60
2022/06/09 04:36:49;;;;;;;7.65;3.40;;;;;;;22.83;55.42;100506.73;1948504;74;21036;-61
2022/06/09 04:39:18;;;;;;;7.80;3.25;;;;;;;22.99;55.34;100509.66;1948584;74;21615;-61
2022/06/09 04:41:47;;;;;;;8.20;2.90;;;;;;;23.07;55.25;100507.13;1948600;74;21474;-61
2022/06/09 04:44:15;;;;;;;7.15;2.62;;;;;;;23.09;55.08;100515.88;1948627;74;21027;-62
2022/06/09 04:46:44;;;;;;;9.00;2.60;;;;;;;23.16;55.00;100513.94;1948621;73;21035;-60
2022/06/09 04:49:12;;;;;;;9.75;4.00;;;;;;;23.34;55.05;100513.51;1948499;74;21108;-60
2022/06/09 04:51:41;;;;;;;8.63;2.70;;;;;;;23.51;55.17;100511.36;1948575;74;21027;-59
2022/06/09 04:54:09;;;;;;;11.03;2.87;;;;;;;23.59;55.13;100515.14;1948676;74;21042;-60
2022/06/09 04:56:38;;;;;;;8.75;2.92;;;;;;;23.60;54.71;100510.12;1923745;74;21173;-60
2022/06/09 04:59:07;;;;;;;9.00;3.10;;;;;;;23.58;54.41;100504.91;1898514;75;21125;-61
2022/06/09 05:01:36;;;;;;;10.30;3.52;;;;;;;23.52;54.30;100505.52;1898540;75;21478;-66
2022/06/09 05:04:05;;;;;;;12.82;4.30;;;;;;;23.66;54.36;100507.70;1898483;75;21087;-67
2022/06/09 05:06:34;;;;;;;11.10;4.05;;;;;;;23.82;54.38;100507.05;1898626;75;21039;-69
2022/06/09 05:09:03;;;;;;;17.85;6.67;;;;;;;23.99;54.20;100505.88;1898521;75;21028;-67
2022/06/09 05:11:31;;;;;;;24.70;5.95;;;;;;;24.06;53.78;100501.58;1898593;75;21105;-67
2022/06/09 05:14:00;;;;;;;11.33;4.22;;;;;;;24.08;53.44;100496.89;1898570;75;21098;-67
2022/06/09 05:16:30;;;;;;;6.53;2.87;;;;;;;24.10;53.44;100494.88;1898397;75;21628;-67
2022/06/09 05:18:58;;;;;;;7.83;2.65;;;;;;;24.15;53.31;100501.16;1898653;75;21075;-68
2022/06/09 05:21:27;;;;;;;11.18;3.50;;;;;;;24.17;52.99;100507.23;1898519;75;21106;-67
2022/06/09 05:23:56;;;;;;;13.70;3.52;;;;;;;24.26;52.91;100508.99;1898530;75;21097;-67
2022/06/09 05:26:24;;;;;;;10.95;3.58;;;;;;;24.36;52.90;100500.32;1898486;75;21023;-68
2022/06/09 05:28:53;;;;;;;8.95;2.80;;;;;;;24.51;52.78;100503.80;1898493;75;21121;-69
2022/06/09 05:31:23;;;;;;;17.62;3.92;;;;;;;24.60;52.74;100506.42;1898575;75;21105;-69
2022/06/09 05:33:51;;;;;;;13.95;3.65;;;;;;;24.68;52.33;100506.15;1898577;75;21043;-65
2022/06/09 05:36:20;;;;;;;11.50;3.60;;;;;;;24.91;52.30;100502.44;1898492;75;21031;-65
2022/06/09 05:47:10;;;;;;;10.40;2.87;;;;;;;27.39;50.84;100497.20;1898508;75;21027;-56
2022/06/09 05:49:38;;;;;;;6.47;2.58;;;;;;;27.86;49.68;100499.83;1898546;75;21118;-59
2022/06/09 05:52:07;;;;;;;3.95;2.02;;;;;;;28.35;48.93;100494.62;1898639;75;21027;-60
2022/06/09 05:54:37;;;;;;;8.30;2.10;;;;;;;28.75;47.95;100494.44;1898563;75;21400;-60
2022/06/09 05:57:06;;;;;;;5.03;2.20;;;;;;;29.04;46.81;100489.55;1918331;74;21574;-60
2022/06/09 05:59:35;;;;;;;9.95;1.95;;;;;;;29.40;46.39;100498.28;1948615;74;21043;-60
2022/06/09 06:02:05;;;;;;;5.17;2.20;;;;;;;29.67;45.86;100494.56;1948475;74;21097;-60
2022/06/09 06:04:34;;;;;;;8.80;2.35;;;;;;;30.03;44.48;100491.33;1948545;74;21462;-61
2022/06/09 06:07:03;;;;;;;5.03;2.10;;;;;;;30.15;44.00;100492.16;1948590;74;21023;-60
2022/06/09 06:09:32;;;;;;;8.10;3.62;;;;;;;30.37;43.76;100485.70;1948616;74;21003;-60
2022/06/09 06:12:03;;;;;;;5.78;2.27;;;;;;;30.71;43.65;100492.25;1948537;74;21007;-60
2022/06/09 06:14:32;;;;;;;4.15;2.12;;;;;;;31.09;43.21;100489.69;1948567;74;21031;-61
2022/06/09 06:17:01;;;;;;;5.33;2.10;;;;;;;31.48;42.31;100486.86;1948446;74;21451;-62
2022/06/09 06:19:30;;;;;;;6.60;2.15;;;;;;;31.60;41.34;100487.13;1948550;74;21046;-60
2022/06/09 06:21:59;;;;;;;4.15;2.17;;;;;;;31.60;41.54;100492.57;1948486;74;21164;-60
2022/06/09 06:24:27;;;;;;;7.05;2.05;;;;;;;31.48;41.54;100490.41;1948520;74;21098;-60
2022/06/09 06:26:56;;;;;;;4.90;2.12;;;;;;;31.55;41.55;100489.91;1948521;74;21039;-61
2022/06/09 06:29:27;;;;;;;7.00;2.37;;;;;;;31.97;41.59;100491.19;1948323;74;21038;-63
2022/06/09 06:31:56;;;;;;;7.53;2.15;;;;;;;32.56;41.14;100483.30;1948602;74;21101;-60
2022/06/09 06:34:25;;;;;;;6.72;2.20;;;;;;;32.89;40.54;100487.36;1948579;74;21116;-60
2022/06/09 06:36:53;;;;;;;4.78;2.42;;;;;;;33.20;40.00;100486.67;1948713;74;21116;-60
2022/06/09 06:39:22;;;;;;;6.30;2.62;;;;;;;33.09;39.15;100489.50;1948522;74;21030;-60
2022/06/09 06:41:50;;;;;;;7.40;2.42;;;;;;;32.59;39.06;100491.92;1948353;73;21109;-60
2022/06/09 06:44:19;;;;;;;4.00;1.90;;;;;;;32.26;39.33;100488.64;1948645;74;21023;-60
2022/06/09 06:46:48;;;;;;;8.80;1.95;;;;;;;32.34;39.47;100491.67;1948746;73;21028;-72
2022/06/09 06:49:21;;;;;;;7.08;1.65;;;;;;;32.38;39.25;100490.20;1948561;74;21505;-72
2022/06/09 06:51:50;;;;;;;8.35;2.00;;;;;;;32.44;38.69;100480.34;1947691;73;21097;-71
2022/06/09 06:54:17;;;;;;;6.33;1.60;;;;;;;32.69;38.34;100485.49;1948237;73;21030;-58
2022/06/09 06:56:45;;;;;;;5.55;1.80;;;;;;;33.01;37.98;100478.81;1948564;74;21039;-61
2022/06/09 06:59:16;;;;;;;8.08;1.70;;;;;;;33.50;37.42;100481.20;1938529;74;21043;-61
2022/06/09 07:01:44;;;;;;;8.08;2.22;;;;;;;33.95;37.00;100485.27;1939225;74;21044;-61
2022/06/09 07:04:13;;;;;;;8.05;1.80;;;;;;;33.95;37.00;100485.27;1939135;74;21023;-62
2022/06/09 07:06:42;;;;;;;3.72;1.82;;;;;;;34.11;36.31;100473.80;1939092;74;21043;-61
2022/06/09 07:09:10;;;;;;;8.33;1.95;;;;;;;34.14;35.91;100474.73;1938964;74;21204;-68
2022/06/09 07:11:40;;;;;;;4.62;2.05;;;;;;;33.94;35.74;100469.92;1939104;74;21105;-67
2022/06/09 07:14:08;;;;;;;2.98;1.85;;;;;;;33.74;35.50;100481.83;1939216;74;21516;-67
2022/06/09 07:16:37;;;;;;;7.42;1.60;;;;;;;33.74;35.50;100481.83;1939071;74;21039;-67
2022/06/09 07:19:07;;;;;;;6.05;1.80;;;;;;;33.66;35.37;100480.70;1939104;74;21067;-68
2022/06/09 07:21:36;;;;;;;5.60;1.75;;;;;;;33.88;35.31;100478.47;1938691;74;21522;-69
2022/06/09 07:24:05;;;;;;;5.28;1.57;;;;;;;34.18;35.30;100481.45;1939158;74;21008;-66
2022/06/09 07:26:35;;;;;;;4.53;1.45;;;;;;;34.43;35.12;100479.24;1939323;74;21000;-66
2022/06/09 07:29:04;;;;;;;4.53;1.67;;;;;;;34.16;34.82;100489.00;1938314;74;21035;-67
2022/06/09 07:31:34;;;;;;;9.98;2.83;;;;;;;33.91;35.07;100486.77;1939385;74;21399;-65
2022/06/09 07:34:02;;;;;;;5.53;2.10;;;;;;;33.74;35.01;100492.75;1939110;74;21530;-66
2022/06/09 07:36:32;;;;;;;3.42;1.60;;;;;;;33.45;35.02;100489.48;1939201;74;21051;-65
2022/06/09 07:39:00;;;;;;;3.22;1.70;;;;;;;33.27;35.04;100489.36;1939138;74;21588;-65
2022/06/09 07:41:29;;;;;;;4.67;1.70;;;;;;;33.27;35.04;100489.36;1939178;74;21117;-65
2022/06/09 07:43:59;;;;;;;3.98;1.80;;;;;;;33.14;35.32;100484.78;1939079;74;21003;-65
2022/06/09 07:46:28;;;;;;;12.75;2.17;;;;;;;33.27;35.36;100483.40;1939023;74;21474;-61
2022/06/09 07:48:57;;;;;;;8.40;2.10;;;;;;;33.20;35.59;100483.95;1939200;74;21506;-61
2022/06/09 07:51:28;;;;;;;6.53;1.60;;;;;;;33.11;35.66;100493.89;1932887;72;21035;-63
2022/06/09 07:53:57;;;;;;;4.00;1.80;;;;;;;32.92;35.87;100488.28;1937677;74;21015;-61
2022/06/09 07:56:26;;;;;;;7.85;1.82;;;;;;;32.40;36.07;100487.27;1936888;74;21454;-63
2022/06/09 07:58:55;;;;;;;3.67;1.70;;;;;;;32.01;36.47;100492.98;1912227;74;21533;-64
2022/06/09 08:01:24;;;;;;;6.55;2.50;;;;;;;31.77;36.78;100489.78;1918881;74;21585;-64
2022/06/09 08:03:53;;;;;;;4.03;1.92;;;;;;;31.71;36.96;100491.97;1911191;73;21109;-66
2022/06/09 08:06:22;;;;;;;2.90;1.70;;;;;;;31.64;37.08;100499.27;1908523;74;21094;-65
2022/06/09 08:08:52;;;;;;;3.45;1.95;;;;;;;31.68;37.14;100507.34;1910125;74;21071;-63
2022/06/09 08:11:20;;;;;;;7.10;1.92;;;;;;;31.42;37.10;100504.80;1906966;74;21152;-65
2022/06/09 08:13:49;;;;;;;3.92;2.00;;;;;;;31.29;37.35;100506.11;1911976;74;21033;-69
2022/06/09 08:16:18;;;;;;;6.40;2.05;;;;;;;31.18;37.59;100506.98;1908017;74;21116;-68
2022/06/09 08:18:47;;;;;;;5.25;2.50;;;;;;;31.54;37.48;100495.06;1917785;74;21143;-69
2022/06/09 08:21:16;;;;;;;6.60;2.25;;;;;;;31.67;37.41;100496.12;1910686;74;21031;-73
2022/06/09 08:23:45;;;;;;;4.05;2.50;;;;;;;32.22;37.06;100494.20;1901177;74;21019;-69
2022/06/09 08:26:13;;;;;;;9.08;2.85;;;;;;;32.98;36.59;100492.89;1929600;74;21522;-71
2022/06/09 08:28:42;;;;;;;5.50;2.00;;;;;;;33.63;36.21;100490.68;1929427;74;21117;-67
2022/06/09 08:31:10;;;;;;;7.10;2.20;;;;;;;34.08;35.47;100490.63;1929800;74;21091;-63
2022/06/09 08:33:39;;;;;;;2.72;1.92;;;;;;;34.49;35.31;100437.88;1929731;74;21004;-63
2022/06/09 08:36:09;;;;;;;3.52;2.20;;;;;;;34.72;34.77;100476.38;1929685;74;21008;-64
2022/06/09 08:38:38;;;;;;;4.62;2.27;;;;;;;34.96;34.48;100489.69;1929530;74;21475;-64
2022/06/09 08:41:27;;;;;;;3.15;2.10;;;;;;;35.46;33.71;100483.77;1929687;74;21105;-67
2022/06/09 08:44:16;;;;;;;4.62;2.10;;;;;;;35.46;33.71;100483.77;1929645;73;21028;-67
2022/06/09 08:46:56;;;;;;;5.83;2.00;;;;;;;35.48;33.49;100487.10;1905339;74;21024;-66
2022/06/09 08:49:42;;;;;;;4.53;2.02;;;;;;;35.19;33.13;100486.81;1896645;76;21117;-65
2022/06/09 08:52:22;;;;;;;9.18;2.20;;;;;;;35.03;33.40;100473.72;1896689;76;21048;-63
2022/06/09 08:54:52;;;;;;;7.08;2.50;;;;;;;34.97;33.49;100476.33;1896254;75;21157;-62
2022/06/09 08:57:25;;;;;;;8.28;2.37;;;;;;;35.05;33.34;100474.35;1896607;76;21133;-63
2022/06/09 08:59:54;;;;;;;;;;;;;;;34.44;33.74;100456.33;1903102;74;21075;-62
2022/06/09 09:02:28;;;;;;;7.75;1.90;;;;;;;33.41;34.37;100469.16;1902514;75;20119;-62
2022/06/09 09:05:08;;;;;;;7.60;2.77;;;;;;;32.57;35.35;100472.16;1902540;75;21058;-64
2022/06/09 09:07:40;;;;;;;11.45;2.92;;;;;;;31.66;36.32;100476.24;1902619;75;21489;-64
2022/06/09 09:10:28;;;;;;;6.92;3.37;;;;;;;30.89;37.32;100482.73;1902679;75;21533;-63
2022/06/09 09:13:06;;;;;;;7.65;3.55;;;;;;;30.39;38.02;100472.77;1899303;75;21494;-64
2022/06/09 09:15:41;;;;;;;9.75;3.72;;;;;;;29.91;38.64;100477.94;1902557;75;21117;-67
2022/06/09 09:18:28;;;;;;;8.25;2.92;;;;;;;29.49;39.35;100482.23;1902677;75;21035;-67
2022/06/09 09:21:09;;;;;;;7.95;2.85;;;;;;;29.15;39.89;100478.79;1902687;74;21113;-67
2022/06/09 09:23:41;;;;;;;45.85;19.92;;;;;;;28.76;40.62;100470.39;1902076;75;21031;-65
2022/06/09 09:26:15;;;;;;;17.05;6.65;;;;;;;28.41;41.19;100464.09;1902612;75;21039;-66
2022/06/09 09:28:52;;;;;;;23.25;7.97;;;;;;;28.17;41.68;100454.84;1902501;75;21502;-66
2022/06/09 09:31:33;;;;;;;22.22;6.70;;;;;;;27.96;42.13;100453.66;1902697;74;21191;-66
2022/06/09 09:34:04;;;;;;;13.32;3.35;;;;;;;27.79;42.58;100457.45;1886147;75;21043;-66
2022/06/09 09:36:36;;;;;;;10.15;3.85;;;;;;;27.63;42.97;100463.30;1902695;75;21109;-66
2022/06/09 09:39:13;;;;;;;14.63;3.95;;;;;;;27.48;43.25;100460.52;1902556;75;21039;-67
2022/06/09 09:41:42;;;;;;;13.45;3.22;;;;;;;27.38;43.50;100456.34;1901938;75;21046;-66
2022/06/09 09:44:23;;;;;;;13.30;3.60;;;;;;;27.26;43.93;100462.14;1902622;75;21350;-66
2022/06/09 09:46:54;;;;;;;9.33;3.37;;;;;;;27.15;44.67;100471.95;1902692;75;21105;-66
2022/06/09 09:49:31;;;;;;;8.53;3.10;;;;;;;27.11;45.15;100488.16;1902022;75;21039;-66
2022/06/09 09:52:02;;;;;;;10.15;3.10;;;;;;;27.06;45.41;100498.67;1902568;75;21110;-66
2022/06/09 09:54:34;;;;;;;7.95;3.08;;;;;;;27.01;45.83;100499.69;1902675;75;21067;-66
2022/06/09 09:57:17;;;;;;;5.70;3.87;;;;;;;26.95;46.87;100502.58;1899544;75;21121;-66
2022/06/09 09:59:54;;;;;;;7.47;3.02;;;;;;;26.90;47.49;100499.03;1903412;74;21560;-66
2022/06/09 10:08:44;;;;;;;5.37;3.05;;;;;;;28.82;48.56;100486.73;1905400;75;21023;-66
2022/06/09 10:14:01;;;;;;;8.58;2.92;;;;;;;29.90;46.34;100498.48;1905402;75;21023;-66
2022/06/09 10:16:32;;;;;;;6.33;3.20;;;;;;;30.44;45.01;100501.23;1905559;75;21050;-66
2022/06/09 10:19:04;;;;;;;5.42;2.55;;;;;;;30.47;44.21;100488.59;1905512;75;21059;-66
2022/06/09 10:21:54;;;;;;;8.30;2.90;;;;;;;30.27;44.05;100485.19;1905902;75;21035;-66
2022/06/09 10:24:34;;;;;;;5.22;2.70;;;;;;;30.16;44.49;100481.64;1905480;75;21501;-66
2022/06/09 10:27:03;;;;;;;6.17;2.77;;;;;;;30.13;45.19;100458.94;1905504;75;21489;-67
2022/06/09 10:29:36;;;;;;;8.40;3.45;;;;;;;29.83;45.78;100449.58;1905573;75;21031;-66
2022/06/09 10:32:15;;;;;;;;;;;;;;;29.61;46.38;100456.83;1882350;75;21074;-66
2022/06/09 10:35:06;;;;;;;7.12;2.75;;;;;;;29.57;46.69;100456.89;1905545;75;20119;-67
2022/06/09 10:37:56;;;;;;;6.60;2.92;;;;;;;29.32;46.44;100469.94;1905524;75;21112;-67
2022/06/09 10:40:33;;;;;;;6.05;2.72;;;;;;;28.71;47.30;100475.52;1905360;75;21109;-66
2022/06/09 10:43:08;;;;;;;6.00;2.65;;;;;;;28.13;48.47;100467.03;1905113;75;21121;-65
2022/06/09 10:45:49;;;;;;;7.25;2.90;;;;;;;27.78;48.88;100455.27;1905483;75;21035;-66
2022/06/09 10:57:23;;;;;;;8.35;3.02;;;;;;;27.58;49.51;100490.55;1905567;75;21474;-66
2022/06/09 11:00:17;;;;;;;5.83;2.65;;;;;;;27.49;49.74;100505.96;1905590;74;21181;-64
2022/06/09 11:02:35;;;;;;;6.33;3.22;;;;;;;27.14;50.80;100502.17;1898240;74;21490;-66
2022/06/09 11:05:07;;;;;;;5.25;3.10;;;;;;;27.08;51.03;100490.72;1905008;75;21039;-66
2022/06/09 11:08:07;;;;;;;9.08;3.30;;;;;;;26.98;51.60;100483.82;1904662;75;21548;-66
2022/06/09 11:11:02;;;;;;;7.58;2.87;;;;;;;26.90;51.61;100480.13;1905483;75;21458;-66
2022/06/09 11:13:36;;;;;;;7.95;2.77;;;;;;;27.01;51.38;100482.13;1905450;74;21027;-66
2022/06/09 11:16:29;;;;;;;6.67;3.15;;;;;;;27.10;51.00;100477.87;1905437;75;21110;-66
2022/06/09 11:22:21;;;;;;;4.80;3.05;;;;;;;27.04;51.25;100481.28;1878482;75;21142;-67
2022/06/09 11:25:04;;;;;;;6.58;2.75;;;;;;;26.89;51.94;100485.20;1905444;75;21067;-66
2022/06/09 11:27:45;;;;;;;3.75;1.98;;;;;;;27.00;52.92;100491.23;1904170;75;21571;-65
2022/06/09 11:30:28;;;;;;;2.47;1.57;;;;;;;27.05;52.26;100501.03;1904568;75;21035;-65
2022/06/09 11:33:32;;;;;;;4.97;1.87;;;;;;;27.15;51.77;100512.49;1904028;75;21518;-66
2022/06/09 11:36:12;;;;;;;6.42;1.90;;;;;;;27.33;51.25;100519.89;1905455;75;21551;-66
2022/06/09 11:39:00;;;;;;;3.00;1.62;;;;;;;27.34;50.83;100522.91;1905491;75;21047;-65
2022/06/09 11:41:47;;;;;;;6.95;2.30;;;;;;;27.27;50.75;100530.03;1905596;75;21023;-66
2022/06/09 11:44:30;;;;;;;3.60;1.47;;;;;;;27.30;50.50;100525.64;1905223;75;21045;-66
2022/06/09 11:47:05;;;;;;;2.02;1.07;;;;;;;27.37;50.47;100514.12;1905605;75;21035;-65
2022/06/09 11:49:48;;;;;;;5.40;1.32;;;;;;;27.64;50.20;100497.94;1905511;75;21489;-65
2022/06/09 11:52:22;;;;;;;3.42;1.37;;;;;;;27.87;49.74;100496.64;1905715;75;21473;-66
2022/06/09 11:54:58;;;;;;;2.67;1.37;;;;;;;27.76;49.45;100495.66;1904078;75;21646;-67
2022/06/09 11:57:44;;;;;;;2.00;1.30;;;;;;;27.63;49.36;100494.41;1905487;75;21055;-66
2022/06/09 12:00:31;;;;;;;2.72;1.40;;;;;;;27.63;48.72;100490.34;1905400;75;21481;-65
2022/06/09 12:03:12;;;;;;;2.22;1.17;;;;;;;27.80;48.46;100484.33;1905370;75;21047;-65
2022/06/09 12:05:58;;;;;;;1.65;1.25;;;;;;;27.93;47.36;100489.18;1904170;75;21113;-65
2022/06/09 12:08:36;;;;;;;5.92;2.05;;;;;;;27.99;46.54;100483.55;1905540;75;21034;-65
2022/06/09 12:11:19;;;;;;;3.92;1.62;;;;;;;28.09;46.30;100479.59;1904735;75;21035;-65
2022/06/09 12:14:00;;;;;;;3.42;1.57;;;;;;;28.16;46.20;100483.75;1904568;75;21046;-65
2022/06/09 12:16:35;;;;;;;2.98;1.50;;;;;;;28.27;45.97;100477.06;1905490;75;21478;-65
2022/06/09 12:19:18;;;;;;;3.35;2.00;;;;;;;28.42;45.56;100477.97;1904877;75;21034;-65